createdAt,value
2022-12-08T00:01:30.969Z,97154.20
2022-12-08T00:04:00.261Z,97151.20
2022-12-08T00:06:52.162Z,97149.40
2022-12-08T00:09:38.677Z,97149.00
2022-12-08T00:12:13.514Z,97148.80
2022-12-08T00:14:46.916Z,97151.00
2022-12-08T00:17:16.795Z,97146.00
2022-12-08T00:19:45.281Z,97143.80
2022-12-08T00:22:14.837Z,97146.60
2022-12-08T00:24:44.972Z,97137.60
2022-12-08T00:27:15.239Z,97132.60
2022-12-08T00:29:44.995Z,97138.80
2022-12-08T00:32:12.005Z,97130.60
2022-12-08T00:34:38.657Z,97129.80
2022-12-08T00:37:05.350Z,97126.20
2022-12-08T00:39:32.410Z,97122.00
2022-12-08T00:42:14.105Z,97116.00
2022-12-08T00:44:45.748Z,97118.80
2022-12-08T00:47:13.534Z,97120.20
2022-12-08T00:49:40.694Z,97122.00
2022-12-08T00:52:08.239Z,97121.20
2022-12-08T00:54:35.118Z,97122.00
2022-12-08T00:57:02.225Z,97126.80
2022-12-08T00:59:28.959Z,97126.00
2022-12-08T01:01:55.687Z,97126.60
2022-12-08T01:04:22.592Z,97124.80
2022-12-08T01:06:50.100Z,97121.60
2022-12-08T01:09:18.193Z,97119.20
2022-12-08T01:11:45.263Z,97120.40
2022-12-08T01:14:13.503Z,97125.60
2022-12-08T01:16:41.873Z,97124.60
2022-12-08T01:19:11.405Z,97118.60
2022-12-08T01:21:38.101Z,97111.60
2022-12-08T01:24:05.468Z,97112.00
2022-12-08T01:26:32.209Z,97112.60
2022-12-08T01:28:59.665Z,97119.20
2022-12-08T01:31:26.449Z,97118.40
2022-12-08T01:33:53.547Z,97118.00
2022-12-08T01:36:31.677Z,97119.00
2022-12-08T01:39:02.157Z,97118.60
2022-12-08T01:41:32.042Z,97111.20
2022-12-08T01:44:03.656Z,97103.20
2022-12-08T01:46:33.129Z,97106.60
2022-12-08T01:49:08.517Z,97097.00
2022-12-08T01:52:34.149Z,97089.20
2022-12-08T01:55:08.733Z,97094.00
2022-12-08T01:57:42.947Z,97091.40
2022-12-08T02:00:12.928Z,97088.40
2022-12-08T02:02:48.897Z,97083.60
2022-12-08T02:05:17.415Z,97086.00
2022-12-08T02:07:45.139Z,97082.20
2022-12-08T02:10:16.369Z,97086.20
2022-12-08T02:12:43.115Z,97087.40
2022-12-08T02:15:10.702Z,97088.40
2022-12-08T02:18:17.566Z,97082.80
2022-12-08T02:21:01.022Z,97081.60
2022-12-08T02:24:09.031Z,97073.20
2022-12-08T02:27:31.488Z,97071.40
2022-12-08T02:30:01.071Z,97072.20
2022-12-08T02:32:49.135Z,97070.60
2022-12-08T02:35:48.150Z,97062.80
2022-12-08T02:38:14.786Z,97059.40
2022-12-08T02:41:18.064Z,97062.80
2022-12-08T02:43:48.794Z,97059.20
2022-12-08T02:46:22.772Z,97056.60
2022-12-08T02:48:52.405Z,97050.40
2022-12-08T02:51:19.821Z,97049.80
2022-12-08T02:53:47.434Z,97049.40
2022-12-08T02:56:40.525Z,97047.00
2022-12-08T02:59:31.998Z,97043.60
2022-12-08T03:01:58.702Z,97042.80
2022-12-08T03:04:54.159Z,97041.00
2022-12-08T03:07:40.988Z,97037.20
2022-12-08T03:10:16.402Z,97034.00
2022-12-08T03:12:49.593Z,97039.20
2022-12-08T03:15:19.467Z,97036.20
2022-12-08T03:17:51.468Z,97030.00
2022-12-08T03:20:24.265Z,97031.60
2022-12-08T03:22:53.477Z,97034.80
2022-12-08T03:25:23.202Z,97031.80
2022-12-08T03:27:51.605Z,97028.80
2022-12-08T03:30:18.802Z,97026.80
2022-12-08T03:32:51.494Z,97022.60
2022-12-08T03:35:26.702Z,97021.00
2022-12-08T03:38:12.087Z,97018.60
2022-12-08T03:40:40.363Z,97014.20
2022-12-08T03:43:07.823Z,97011.00
2022-12-08T03:45:34.961Z,97001.40
2022-12-08T03:48:01.931Z,96999.00
2022-12-08T03:50:28.583Z,97002.80
2022-12-08T03:52:55.219Z,97002.60
2022-12-08T03:55:21.936Z,97002.60
2022-12-08T03:57:48.613Z,97000.20
2022-12-08T04:00:17.354Z,96995.00
2022-12-08T04:02:44.127Z,97001.80
2022-12-08T04:05:10.928Z,96997.00
2022-12-08T04:07:37.692Z,96990.80
2022-12-08T04:10:05.769Z,96994.20
2022-12-08T04:12:32.694Z,96998.00
2022-12-08T04:14:59.329Z,96999.20
2022-12-08T04:17:26.040Z,96990.20
2022-12-08T04:19:52.725Z,96993.00
2022-12-08T04:22:19.352Z,96999.60
2022-12-08T04:24:46.081Z,96996.00
2022-12-08T04:27:12.830Z,96993.40
2022-12-08T04:29:39.545Z,96994.60
2022-12-08T04:32:06.244Z,96988.80
2022-12-08T04:34:33.205Z,96988.20
2022-12-08T04:36:59.836Z,96986.60
2022-12-08T04:39:26.570Z,96988.40
2022-12-08T04:41:53.386Z,96993.20
2022-12-08T04:44:20.214Z,96990.60
2022-12-08T04:46:46.939Z,96989.40
2022-12-08T04:49:13.707Z,96992.00
2022-12-08T04:51:40.534Z,96984.20
2022-12-08T04:54:07.275Z,96984.20
2022-12-08T04:56:33.955Z,96983.00
2022-12-08T04:59:00.652Z,96979.60
2022-12-08T05:01:27.513Z,96980.00
2022-12-08T05:03:54.273Z,96978.60
2022-12-08T05:06:21.061Z,96977.00
2022-12-08T05:08:47.761Z,96976.00
2022-12-08T05:11:14.457Z,96973.20
2022-12-08T05:13:41.225Z,96971.80
2022-12-08T05:16:13.907Z,96969.00
2022-12-08T05:18:41.534Z,96972.80
2022-12-08T05:21:08.581Z,96975.40
2022-12-08T05:23:35.730Z,96973.00
2022-12-08T05:26:02.436Z,96970.80
2022-12-08T05:28:44.649Z,96974.80
2022-12-08T05:31:13.609Z,96968.20
2022-12-08T05:33:40.837Z,96961.00
2022-12-08T05:36:09.069Z,96961.00
2022-12-08T05:38:36.257Z,96959.40
2022-12-08T05:41:03.491Z,96955.20
2022-12-08T05:43:30.189Z,96953.40
2022-12-08T05:45:56.927Z,96954.00
2022-12-08T05:48:23.683Z,96953.40
2022-12-08T05:50:51.369Z,96950.80
2022-12-08T05:53:19.954Z,96952.00
2022-12-08T05:55:47.526Z,96957.60
2022-12-08T05:58:17.534Z,96958.40
2022-12-08T06:00:45.303Z,96958.20
2022-12-08T06:03:12.951Z,96953.80
2022-12-08T06:05:41.483Z,96953.40
2022-12-08T06:08:08.838Z,96957.00
2022-12-08T06:10:35.619Z,96952.80
2022-12-08T06:13:02.293Z,96957.00
2022-12-08T06:15:29.014Z,96959.60
2022-12-08T06:17:55.694Z,96958.40
2022-12-08T06:20:22.400Z,96958.40
2022-12-08T06:22:49.057Z,96956.00
2022-12-08T06:25:15.716Z,96958.80
2022-12-08T06:27:42.363Z,96957.40
2022-12-08T06:30:09.363Z,96958.40
2022-12-08T06:32:37.573Z,96955.20
2022-12-08T06:35:04.747Z,96952.20
2022-12-08T06:37:31.719Z,96951.20
2022-12-08T06:39:58.693Z,96943.80
2022-12-08T06:42:44.047Z,96951.20
2022-12-08T06:45:18.060Z,96952.40
2022-12-08T06:47:44.892Z,96950.00
2022-12-08T06:50:13.872Z,96948.80
2022-12-08T06:52:53.029Z,96946.40
2022-12-08T06:55:57.362Z,96942.80
2022-12-08T06:58:13.423Z,96946.20
2022-12-08T07:00:41.524Z,96941.60
2022-12-08T07:03:10.065Z,96945.80
2022-12-08T07:05:38.373Z,96947.80
2022-12-08T07:08:07.105Z,96950.40
2022-12-08T07:10:34.684Z,96953.80
2022-12-08T07:13:01.331Z,96949.20
2022-12-08T07:15:28.297Z,96949.60
2022-12-08T07:17:59.759Z,96953.40
2022-12-08T07:20:27.522Z,96958.00
2022-12-08T07:22:54.459Z,96960.20
2022-12-08T07:25:21.988Z,96958.60
2022-12-08T07:27:51.437Z,96962.00
2022-12-08T07:30:18.245Z,96958.80
2022-12-08T07:32:44.981Z,96958.00
2022-12-08T07:35:11.827Z,96960.80
2022-12-08T07:37:39.284Z,96959.60
2022-12-08T07:40:08.067Z,96955.00
2022-12-08T07:42:35.123Z,96958.00
2022-12-08T07:45:02.367Z,96955.40
2022-12-08T07:47:29.141Z,96950.20
2022-12-08T07:49:55.954Z,96951.20
2022-12-08T07:52:23.514Z,96955.60
2022-12-08T07:54:50.359Z,96953.40
2022-12-08T07:57:17.196Z,96952.40
2022-12-08T07:59:43.861Z,96953.60
2022-12-08T08:02:25.007Z,96954.00
2022-12-08T08:04:53.204Z,96954.80
2022-12-08T08:07:20.038Z,96952.40
2022-12-08T08:09:46.789Z,96946.20
2022-12-08T08:15:01.169Z,96950.80
2022-12-08T08:17:29.118Z,96953.00
2022-12-08T08:19:56.031Z,96951.60
2022-12-08T08:22:22.697Z,96955.40
2022-12-08T08:24:49.428Z,96956.60
2022-12-08T08:27:16.270Z,96960.60
2022-12-08T08:29:43.011Z,96962.00
2022-12-08T08:32:09.870Z,96967.00
2022-12-08T08:34:36.587Z,96960.40
2022-12-08T08:37:03.447Z,96959.00
2022-12-08T08:39:32.087Z,96956.40
2022-12-08T08:41:59.332Z,96960.20
2022-12-08T08:44:26.077Z,96955.80
2022-12-08T08:46:52.880Z,96951.60
2022-12-08T08:49:20.301Z,96957.00
2022-12-08T08:51:47.257Z,96957.60
2022-12-08T08:54:14.013Z,96957.60
2022-12-08T08:56:40.674Z,96961.40
2022-12-08T08:59:07.573Z,96960.20
2022-12-08T09:01:34.356Z,96963.00
2022-12-08T09:04:01.769Z,96964.20
2022-12-08T09:06:28.784Z,96962.00
2022-12-08T09:08:55.966Z,96958.20
2022-12-08T09:11:25.883Z,96960.40
2022-12-08T09:13:54.157Z,96956.60
2022-12-08T09:16:21.882Z,96959.60
2022-12-08T09:18:49.737Z,96960.80
2022-12-08T09:21:22.907Z,96961.80
2022-12-08T09:23:51.558Z,96955.60
2022-12-08T09:26:22.362Z,96952.20
2022-12-08T09:28:50.545Z,96950.00
2022-12-08T09:31:18.912Z,96949.20
2022-12-08T09:33:45.721Z,96948.40
2022-12-08T09:36:12.411Z,96946.60
2022-12-08T09:38:40.506Z,96942.80
2022-12-08T09:41:49.971Z,96943.00
2022-12-08T09:44:16.570Z,96937.40
2022-12-08T09:46:43.900Z,96930.60
2022-12-08T09:49:16.857Z,96928.40
2022-12-08T09:51:45.295Z,96924.20
2022-12-08T09:54:33.948Z,96917.40
2022-12-08T09:57:07.144Z,96912.80
2022-12-08T09:59:35.622Z,96903.60
2022-12-08T10:02:13.599Z,96904.60
2022-12-08T10:04:41.442Z,96903.40
2022-12-08T10:07:36.788Z,96899.00
2022-12-08T10:10:15.828Z,96894.60
2022-12-08T10:12:57.858Z,96894.00
2022-12-08T10:15:33.718Z,96887.80
2022-12-08T10:18:03.022Z,96890.20
2022-12-08T10:20:37.645Z,96888.00
2022-12-08T10:23:13.772Z,96882.40
2022-12-08T10:25:47.189Z,96884.40
2022-12-08T10:28:14.105Z,96879.60
2022-12-08T10:30:41.719Z,96877.20
2022-12-08T10:33:16.840Z,96875.80
2022-12-08T10:35:50.793Z,96869.00
2022-12-08T10:38:26.600Z,96864.60
2022-12-08T10:41:02.370Z,96865.00
2022-12-08T10:43:29.104Z,96863.40
2022-12-08T10:46:08.789Z,96858.80
2022-12-08T10:48:35.484Z,96840.00
2022-12-08T10:51:05.481Z,96844.40
2022-12-08T10:53:34.134Z,96846.00
2022-12-08T10:56:03.800Z,96835.20
2022-12-08T10:58:42.447Z,96833.40
2022-12-08T11:01:14.341Z,96832.00
2022-12-08T11:04:16.091Z,96831.00
2022-12-08T11:06:42.969Z,96825.20
2022-12-08T11:09:15.607Z,96825.40
2022-12-08T11:11:58.771Z,96820.40
2022-12-08T11:14:30.285Z,96818.00
2022-12-08T11:17:07.276Z,96814.00
2022-12-08T11:19:38.815Z,96806.60
2022-12-08T11:22:25.479Z,96803.00
2022-12-08T11:25:18.945Z,96801.40
2022-12-08T11:27:54.053Z,96802.40
2022-12-08T11:30:43.816Z,96800.40
2022-12-08T11:33:22.325Z,96797.40
2022-12-08T11:35:56.931Z,96794.20
2022-12-08T11:38:26.215Z,96789.80
2022-12-08T11:40:58.761Z,96793.20
2022-12-08T11:43:38.968Z,96790.40
2022-12-08T11:46:23.784Z,96791.00
2022-12-08T11:48:58.968Z,96792.20
2022-12-08T11:52:16.947Z,96788.00
2022-12-08T11:54:50.611Z,96783.60
2022-12-08T11:57:20.767Z,96780.20
2022-12-08T11:59:52.474Z,96776.80
2022-12-08T12:02:23.769Z,96775.40
2022-12-08T12:04:53.455Z,96769.40
2022-12-08T12:07:33.411Z,96767.20
2022-12-08T12:10:06.619Z,96767.80
2022-12-08T12:12:58.146Z,96763.00
2022-12-08T12:16:09.497Z,96759.00
2022-12-08T12:18:46.625Z,96758.40
2022-12-08T12:21:26.631Z,96758.20
2022-12-08T12:24:05.148Z,96759.40
2022-12-08T12:26:37.614Z,96759.20
2022-12-08T12:29:18.914Z,96755.20
2022-12-08T12:31:53.666Z,96753.20
2022-12-08T12:34:25.619Z,96749.20
2022-12-08T12:37:10.693Z,96753.80
2022-12-08T12:39:52.659Z,96750.80
2022-12-08T12:42:34.740Z,96748.60
2022-12-08T12:45:21.590Z,96744.80
2022-12-08T12:47:56.293Z,96744.40
2022-12-08T12:50:41.771Z,96742.00
2022-12-08T12:53:17.333Z,96737.20
2022-12-08T12:55:54.642Z,96738.80
2022-12-08T12:58:21.295Z,96738.80
2022-12-08T13:00:48.068Z,96729.00
2022-12-08T13:03:17.293Z,96734.20
2022-12-08T13:05:50.820Z,96734.20
2022-12-08T13:08:26.511Z,96730.00
2022-12-08T13:11:04.866Z,96724.80
2022-12-08T13:13:32.202Z,96727.00
2022-12-08T13:16:19.166Z,96724.60
2022-12-08T13:18:52.482Z,96724.60
2022-12-08T13:21:21.834Z,96725.00
2022-12-08T13:23:48.485Z,96722.40
2022-12-08T13:26:26.371Z,96724.20
2022-12-08T13:28:58.781Z,96725.60
2022-12-08T13:31:42.616Z,96729.60
2022-12-08T13:34:31.866Z,96732.00
2022-12-08T13:37:10.757Z,96731.80
2022-12-08T13:39:40.156Z,96728.20
2022-12-08T13:42:13.078Z,96726.20
2022-12-08T13:48:23.863Z,96731.20
2022-12-08T13:52:59.893Z,96727.00
2022-12-08T13:59:31.753Z,96728.60
2022-12-08T14:02:04.574Z,96729.80
2022-12-08T14:04:54.465Z,96729.20
2022-12-08T14:07:19.253Z,96734.20
2022-12-08T14:09:46.607Z,96731.20
2022-12-08T14:12:21.988Z,96732.60
2022-12-08T14:15:03.871Z,96729.80
2022-12-08T14:17:31.031Z,96735.00
2022-12-08T14:20:00.951Z,96731.20
2022-12-08T14:22:36.247Z,96730.20
2022-12-08T14:25:05.492Z,96726.60
2022-12-08T14:27:35.764Z,96731.60
2022-12-08T14:30:08.049Z,96731.80
2022-12-08T14:32:59.072Z,96731.80
2022-12-08T14:35:37.996Z,96735.40
2022-12-08T14:38:16.940Z,96728.00
2022-12-08T14:40:46.193Z,96726.00
2022-12-08T14:43:19.221Z,96727.20
2022-12-08T14:45:45.818Z,96726.40
2022-12-08T14:48:30.889Z,96721.20
2022-12-08T14:51:03.417Z,96726.60
2022-12-08T14:53:59.127Z,96730.20
2022-12-08T14:56:33.099Z,96741.80
2022-12-08T14:59:07.920Z,96745.40
2022-12-08T15:01:35.440Z,96739.40
2022-12-08T15:04:07.224Z,96739.40
2022-12-08T15:06:34.101Z,96736.40
2022-12-08T15:09:16.626Z,96739.60
2022-12-08T15:11:43.635Z,96738.80
2022-12-08T15:14:32.646Z,96737.20
2022-12-08T15:16:59.949Z,96733.80
2022-12-08T15:19:28.741Z,96733.00
2022-12-08T15:22:21.718Z,96729.20
2022-12-08T15:24:48.795Z,96725.40
2022-12-08T15:27:20.202Z,96725.40
2022-12-08T15:29:48.059Z,96722.60
2022-12-08T15:32:20.651Z,96726.40
2022-12-08T15:34:47.678Z,96726.20
2022-12-08T15:37:22.203Z,96724.40
2022-12-08T15:39:49.147Z,96727.80
2022-12-08T15:42:16.080Z,96731.20
2022-12-08T15:44:43.062Z,96733.60
2022-12-08T15:47:18.451Z,96743.40
2022-12-08T15:49:45.834Z,96741.80
2022-12-08T15:52:17.880Z,96736.80
2022-12-08T15:54:44.589Z,96733.60
2022-12-08T15:57:22.059Z,96729.60
2022-12-08T15:59:56.755Z,96728.00
2022-12-08T16:02:25.289Z,96722.80
2022-12-08T16:07:39.849Z,96726.40
2022-12-08T16:10:08.908Z,96733.40
2022-12-08T16:13:54.801Z,96733.80
2022-12-08T16:16:00.720Z,96731.80
2022-12-08T16:18:31.997Z,96736.60
2022-12-08T16:23:46.567Z,96733.60
2022-12-08T16:26:54.546Z,96735.20
2022-12-08T16:29:07.729Z,96729.00
2022-12-08T16:31:35.159Z,96733.60
2022-12-08T16:34:02.104Z,96732.00
2022-12-08T16:36:28.846Z,96730.20
2022-12-08T16:38:55.588Z,96738.20
2022-12-08T16:41:40.610Z,96738.40
2022-12-08T16:44:07.296Z,96737.00
2022-12-08T16:46:34.885Z,96733.60
2022-12-08T16:49:01.939Z,96736.20
2022-12-08T16:51:28.894Z,96741.80
2022-12-08T16:53:57.152Z,96738.80
2022-12-08T16:56:30.411Z,96747.80
2022-12-08T16:58:59.182Z,96744.20
2022-12-08T17:01:25.959Z,96745.00
2022-12-08T17:04:22.552Z,96742.40
2022-12-08T17:06:39.693Z,96733.60
2022-12-08T17:09:07.330Z,96733.00
2022-12-08T17:11:42.373Z,96738.60
2022-12-08T17:14:10.762Z,96734.80
2022-12-08T17:16:37.868Z,96740.80
2022-12-08T17:19:05.780Z,96746.80
2022-12-08T17:21:33.656Z,96739.40
2022-12-08T17:24:00.609Z,96744.20
2022-12-08T17:26:28.090Z,96740.80
2022-12-08T17:29:02.502Z,96743.20
2022-12-08T17:31:32.239Z,96739.00
2022-12-08T17:34:01.576Z,96738.00
2022-12-08T17:36:28.508Z,96734.60
2022-12-08T17:38:55.763Z,96729.60
2022-12-08T17:41:22.898Z,96727.40
2022-12-08T17:43:49.582Z,96720.00
2022-12-08T17:46:18.444Z,96721.60
2022-12-08T17:48:45.661Z,96720.80
2022-12-08T17:51:12.670Z,96719.40
2022-12-08T17:53:43.361Z,96714.80
2022-12-08T17:56:21.329Z,96715.20
2022-12-08T17:58:54.262Z,96717.60
2022-12-08T18:01:23.191Z,96717.80
2022-12-08T18:03:49.997Z,96717.20
2022-12-08T18:06:20.123Z,96719.60
2022-12-08T18:08:48.193Z,96715.60
2022-12-08T18:11:18.625Z,96709.00
2022-12-08T18:13:47.348Z,96710.20
2022-12-08T18:16:14.480Z,96713.20
2022-12-08T18:18:41.688Z,96717.80
2022-12-08T18:21:08.956Z,96711.40
2022-12-08T18:23:40.430Z,96717.00
2022-12-08T18:26:09.528Z,96725.40
2022-12-08T18:28:36.881Z,96723.80
2022-12-08T18:31:13.027Z,96714.80
2022-12-08T18:33:41.869Z,96711.40
2022-12-08T18:36:14.881Z,96707.20
2022-12-08T18:38:42.233Z,96707.60
2022-12-08T18:41:14.371Z,96702.20
2022-12-08T18:43:41.360Z,96701.60
2022-12-08T18:46:10.725Z,96700.60
2022-12-08T18:48:40.239Z,96703.40
2022-12-08T18:51:19.089Z,96706.00
2022-12-08T18:53:46.594Z,96708.40
2022-12-08T18:56:34.161Z,96711.40
2022-12-08T18:59:04.199Z,96701.40
2022-12-08T19:01:32.866Z,96696.20
2022-12-08T19:06:47.962Z,96697.20
2022-12-08T19:09:15.943Z,96695.00
2022-12-08T19:11:43.491Z,96690.80
2022-12-08T19:14:10.947Z,96690.20
2022-12-08T19:16:37.992Z,96695.60
2022-12-08T19:19:05.127Z,96689.40
2022-12-08T19:21:32.741Z,96690.00
2022-12-08T19:24:00.371Z,96698.40
2022-12-08T19:26:28.547Z,96701.40
2022-12-08T19:28:55.327Z,96707.60
2022-12-08T19:31:22.395Z,96703.00
2022-12-08T19:33:49.173Z,96703.00
2022-12-08T19:36:20.049Z,96703.40
2022-12-08T19:39:05.972Z,96699.60
2022-12-08T19:41:52.822Z,96702.80
2022-12-08T19:44:39.454Z,96700.20
2022-12-08T19:47:06.691Z,96694.60
2022-12-08T19:49:33.746Z,96691.40
2022-12-08T19:52:00.974Z,96689.20
2022-12-08T19:54:28.333Z,96691.00
2022-12-08T19:56:55.065Z,96689.20
2022-12-08T19:59:22.760Z,96690.80
2022-12-08T20:01:49.642Z,96688.40
2022-12-08T20:04:17.715Z,96684.40
2022-12-08T20:06:45.801Z,96685.20
2022-12-08T20:09:13.376Z,96684.60
2022-12-08T20:11:40.703Z,96677.40
2022-12-08T20:14:07.965Z,96677.40
2022-12-08T20:16:35.124Z,96678.20
2022-12-08T20:19:02.196Z,96677.20
2022-12-08T20:21:29.128Z,96676.00
2022-12-08T20:23:56.138Z,96683.60
2022-12-08T20:26:23.496Z,96677.80
2022-12-08T20:28:50.965Z,96678.00
2022-12-08T20:31:26.287Z,96680.80
2022-12-08T20:33:53.738Z,96688.60
2022-12-08T20:36:22.555Z,96688.60
2022-12-08T20:38:51.108Z,96695.20
2022-12-08T20:41:19.219Z,96689.20
2022-12-08T20:43:47.551Z,96691.40
2022-12-08T20:46:16.650Z,96694.20
2022-12-08T20:48:44.695Z,96689.00
2022-12-08T20:51:16.739Z,96684.40
2022-12-08T20:53:43.729Z,96683.20
2022-12-08T20:56:14.909Z,96682.60
2022-12-08T20:58:42.402Z,96686.00
2022-12-08T21:01:11.060Z,96691.80
2022-12-08T21:03:38.117Z,96695.40
2022-12-08T21:06:05.151Z,96691.60
2022-12-08T21:08:32.162Z,96692.80
2022-12-08T21:10:59.055Z,96687.40
2022-12-08T21:13:25.877Z,96687.80
2022-12-08T21:15:52.945Z,96688.20
2022-12-08T21:18:19.989Z,96689.40
2022-12-08T21:20:48.347Z,96691.00
2022-12-08T21:23:16.618Z,96691.40
2022-12-08T21:25:46.375Z,96695.60
2022-12-08T21:28:13.285Z,96695.40
2022-12-08T21:30:41.117Z,96699.40
2022-12-08T21:33:07.927Z,96696.20
2022-12-08T21:35:35.146Z,96693.60
2022-12-08T21:38:02.113Z,96686.00
2022-12-08T21:40:29.059Z,96693.20
2022-12-08T21:42:56.041Z,96689.80
2022-12-08T21:45:23.271Z,96691.80
2022-12-08T21:47:50.813Z,96686.80
2022-12-08T21:50:18.932Z,96678.20
2022-12-08T21:52:48.265Z,96683.20
2022-12-08T21:55:17.104Z,96690.80
2022-12-08T21:57:43.823Z,96689.80
2022-12-08T22:00:14.730Z,96684.60
2022-12-08T22:02:42.038Z,96687.20
2022-12-08T22:05:09.913Z,96690.40
2022-12-08T22:07:41.216Z,96693.20
2022-12-08T22:10:10.522Z,96688.00
2022-12-08T22:12:39.272Z,96687.60
2022-12-08T22:15:07.989Z,96684.60
2022-12-08T22:17:39.837Z,96685.20
2022-12-08T22:20:09.699Z,96684.20
2022-12-08T22:22:37.324Z,96682.40
2022-12-08T22:25:06.020Z,96690.80
2022-12-08T22:27:36.162Z,96688.00
2022-12-08T22:30:04.669Z,96687.20
2022-12-08T22:32:32.170Z,96683.00
2022-12-08T22:34:59.173Z,96680.60
2022-12-08T22:37:26.002Z,96678.80
2022-12-08T22:39:52.783Z,96675.20
2022-12-08T22:42:19.460Z,96681.00
2022-12-08T22:44:46.236Z,96686.80
2022-12-08T22:47:12.948Z,96688.80
2022-12-08T22:49:39.857Z,96693.20
2022-12-08T22:52:06.707Z,96695.00
2022-12-08T22:54:33.396Z,96696.40
2022-12-08T22:57:00.128Z,96693.40
2022-12-08T22:59:28.406Z,96690.40
2022-12-08T23:01:55.087Z,96685.80
2022-12-08T23:04:21.941Z,96682.80
2022-12-08T23:06:48.731Z,96682.60
2022-12-08T23:09:15.517Z,96682.00
2022-12-08T23:11:43.110Z,96673.40
2022-12-08T23:14:09.999Z,96671.40
2022-12-08T23:16:36.998Z,96674.00
2022-12-08T23:19:04.193Z,96670.60
2022-12-08T23:21:31.251Z,96674.00
2022-12-08T23:24:01.562Z,96672.40
2022-12-08T23:26:31.678Z,96672.80
2022-12-08T23:28:59.685Z,96668.40
2022-12-08T23:31:27.449Z,96666.40
2022-12-08T23:33:54.961Z,96660.60
2022-12-08T23:36:25.066Z,96654.80
2022-12-08T23:38:52.525Z,96652.40
2022-12-08T23:41:19.366Z,96653.00
2022-12-08T23:43:48.943Z,96652.40
2022-12-08T23:46:18.367Z,96642.00
2022-12-08T23:48:45.571Z,96646.60
2022-12-08T23:51:13.231Z,96648.60
2022-12-08T23:53:40.267Z,96646.60
2022-12-08T23:56:09.799Z,96639.80
2022-12-08T23:58:37.123Z,96638.40
